Time;durP1;ratioP1;P1;durP2;ratioP2;P2;SDS_P1;SDS_P2;PMS_P1;PMS_P2;Temp;Humidity;BMP_temperature;BMP_pressure;BME280_temperature;BME280_humidity;BME280_pressure;Samples;Min_cycle;Max_cycle;Signal;HPM_P1;HPM_P2
2023/07/02 00:01:09;;;;;;;14.90;8.25;;;;;;;16.25;93.26;100572.63;5325144;28;20481;-75
2023/07/02 00:03:40;;;;;;;12.67;7.73;;;;;;;16.25;92.97;100574.41;5325130;28;20501;-74
2023/07/02 00:06:12;;;;;;;14.50;8.23;;;;;;;16.21;93.00;100563.13;5325000;28;20100;-74
2023/07/02 00:08:43;;;;;;;17.17;9.10;;;;;;;16.18;92.92;100568.53;5325448;28;20431;-75
2023/07/02 00:11:16;;;;;;;22.57;8.50;;;;;;;16.19;92.63;100559.72;5325188;28;20027;-75
2023/07/02 00:13:47;;;;;;;13.90;7.72;;;;;;;16.17;92.86;100566.81;5324130;28;20054;-74
2023/07/02 00:16:18;;;;;;;16.23;9.20;;;;;;;16.16;93.19;100565.09;5324764;28;20378;-74
2023/07/02 00:18:52;;;;;;;22.13;9.77;;;;;;;16.15;92.75;100560.78;5324692;28;20070;-74
2023/07/02 00:21:27;;;;;;;15.68;8.45;;;;;;;16.16;92.64;100559.84;5324591;28;20024;-74
2023/07/02 00:24:00;;;;;;;15.98;8.80;;;;;;;16.16;92.25;100567.72;5324322;28;20051;-73
2023/07/02 00:26:31;;;;;;;15.70;8.38;;;;;;;16.15;93.00;100560.78;5324570;28;20056;-73
2023/07/02 00:29:04;;;;;;;17.90;9.03;;;;;;;16.15;92.35;100566.88;5324376;28;20026;-73
2023/07/02 00:31:35;;;;;;;20.80;11.13;;;;;;;16.11;92.09;100559.19;5324575;28;20047;-73
2023/07/02 00:34:07;;;;;;;21.60;9.90;;;;;;;16.11;91.99;100556.53;5324429;28;20165;-74
2023/07/02 00:36:38;;;;;;;15.90;10.00;;;;;;;16.11;91.96;100548.66;5324450;28;20463;-74
2023/07/02 00:39:11;;;;;;;18.47;10.93;;;;;;;16.11;91.95;100548.66;5324562;28;20028;-74
2023/07/02 00:41:46;;;;;;;19.92;10.52;;;;;;;16.05;91.94;100544.47;5324255;28;20060;-74
2023/07/02 00:44:17;;;;;;;17.52;11.45;;;;;;;16.04;92.21;100550.69;5324290;28;20043;-74
2023/07/02 00:46:48;;;;;;;18.90;10.27;;;;;;;16.03;92.27;100549.81;5324348;28;20028;-73
2023/07/02 00:49:20;;;;;;;21.53;11.27;;;;;;;15.99;92.26;100560.53;5324419;28;20024;-74
2023/07/02 00:51:52;;;;;;;19.02;10.95;;;;;;;15.99;92.74;100561.38;5324397;28;20036;-73
2023/07/02 00:54:23;;;;;;;19.13;11.90;;;;;;;15.93;92.53;100572.13;5324252;28;20551;-72
2023/07/02 00:56:55;;;;;;;20.57;12.80;;;;;;;15.93;92.31;100571.28;5323898;28;20032;-72
2023/07/02 00:59:26;;;;;;;22.77;12.45;;;;;;;15.91;92.43;100575.75;5324379;28;20106;-75
2023/07/02 01:01:58;;;;;;;23.73;12.90;;;;;;;15.83;92.60;100576.88;5324420;28;20028;-74
2023/07/02 01:04:30;;;;;;;21.48;11.88;;;;;;;15.78;92.52;100576.19;5324441;28;20055;-75
2023/07/02 01:07:02;;;;;;;24.03;12.77;;;;;;;15.73;92.98;100579.84;5324112;28;20035;-74
2023/07/02 01:09:34;;;;;;;25.35;13.85;;;;;;;15.64;93.27;100584.56;5324082;28;20078;-75
2023/07/02 01:12:08;;;;;;;24.07;13.70;;;;;;;15.64;93.66;100579.28;5324156;28;20059;-74
2023/07/02 01:14:43;;;;;;;24.73;13.60;;;;;;;15.56;93.79;100580.50;5323997;28;20139;-74
2023/07/02 01:17:19;;;;;;;25.63;14.07;;;;;;;15.56;93.92;100585.75;5324494;28;20452;-74
2023/07/02 01:19:58;;;;;;;25.35;13.85;;;;;;;15.50;94.24;100584.19;5324025;28;20031;-74
2023/07/02 01:22:30;;;;;;;23.45;13.75;;;;;;;15.46;94.69;100585.25;5325855;28;20059;-74
2023/07/02 01:25:02;;;;;;;27.23;14.60;;;;;;;15.39;95.16;100586.34;5326268;28;20070;-73
2023/07/02 01:27:35;;;;;;;26.60;15.20;;;;;;;15.42;95.02;100591.50;5328241;28;20058;-75
2023/07/02 01:30:08;;;;;;;23.48;14.60;;;;;;;15.45;94.83;100597.50;5328090;28;20059;-75
2023/07/02 01:32:40;;;;;;;28.20;15.60;;;;;;;15.45;94.76;100589.63;5327919;28;20040;-75
2023/07/02 01:35:11;;;;;;;23.27;14.40;;;;;;;15.48;95.02;100594.75;5309888;28;20052;-75
2023/07/02 01:37:43;;;;;;;26.87;16.27;;;;;;;15.49;94.94;100598.25;5327922;28;20028;-73
2023/07/02 01:40:14;;;;;;;25.90;16.57;;;;;;;15.48;95.05;100599.16;5327905;27;20490;-74
2023/07/02 01:42:46;;;;;;;32.30;17.47;;;;;;;15.44;95.01;100595.81;5327815;28;20059;-74
2023/07/02 01:45:17;;;;;;;27.60;17.73;;;;;;;15.40;95.26;100603.84;5327675;28;20043;-75
2023/07/02 01:47:48;;;;;;;28.40;16.07;;;;;;;15.37;95.72;100598.69;5327816;28;20024;-74
2023/07/02 01:50:20;;;;;;;25.23;15.33;;;;;;;15.36;96.06;100610.97;5326634;28;20031;-74
2023/07/02 01:52:52;;;;;;;30.25;17.65;;;;;;;15.31;96.46;100603.25;5326453;28;20110;-74
2023/07/02 01:55:23;;;;;;;26.93;15.77;;;;;;;15.31;96.59;100607.63;5327217;28;20031;-74
2023/07/02 01:57:55;;;;;;;25.00;16.37;;;;;;;15.32;96.75;100599.69;5327399;28;20369;-74
2023/07/02 02:00:26;;;;;;;29.67;15.63;;;;;;;15.32;97.18;100601.47;5327720;28;20427;-75
2023/07/02 02:02:57;;;;;;;29.80;16.13;;;;;;;15.29;97.11;100605.09;5327429;28;20125;-74
2023/07/02 02:05:29;;;;;;;29.07;18.30;;;;;;;15.25;97.13;100603.47;5327489;28;20035;-74
2023/07/02 02:08:00;;;;;;;31.70;17.53;;;;;;;15.23;98.33;100602.69;5327195;28;20110;-74
2023/07/02 02:10:31;;;;;;;31.87;17.93;;;;;;;15.19;98.22;100606.31;5328128;28;20370;-75
2023/07/02 02:13:03;;;;;;;28.67;17.33;;;;;;;15.21;98.21;100608.88;5327102;28;20042;-75
2023/07/02 02:15:34;;;;;;;23.70;16.83;;;;;;;15.20;98.45;100605.41;5327151;28;20040;-74
2023/07/02 02:18:06;;;;;;;32.10;18.13;;;;;;;15.19;98.41;100603.69;5327302;28;20031;-75
2023/07/02 02:20:37;;;;;;;32.57;17.50;;;;;;;15.19;99.07;100608.09;5326863;28;20027;-74
2023/07/02 02:23:08;;;;;;;31.83;18.03;;;;;;;15.11;99.03;100596.06;5327183;28;20028;-75
2023/07/02 02:25:40;;;;;;;27.30;16.80;;;;;;;15.06;99.40;100607.66;5327025;28;20115;-74
2023/07/02 02:28:11;;;;;;;29.97;17.57;;;;;;;14.95;100.00;100606.22;5326425;28;20051;-74
2023/07/02 02:30:42;;;;;;;27.00;17.63;;;;;;;14.90;100.00;100613.41;5326881;28;20032;-74
2023/07/02 02:33:14;;;;;;;30.17;18.83;;;;;;;14.85;100.00;100604.00;5326900;28;20039;-74
2023/07/02 02:35:46;;;;;;;28.33;16.87;;;;;;;14.81;100.00;100605.88;5326210;28;20422;-75
2023/07/02 02:38:17;;;;;;;35.05;17.92;;;;;;;14.78;100.00;100608.59;5326600;28;20059;-75
2023/07/02 02:40:49;;;;;;;29.00;17.60;;;;;;;14.71;100.00;100613.16;5326828;28;20505;-75
2023/07/02 02:43:20;;;;;;;31.87;18.07;;;;;;;14.64;100.00;100616.91;5326640;28;20051;-74
2023/07/02 02:45:52;;;;;;;27.97;18.03;;;;;;;14.60;100.00;100617.88;5326489;27;20028;-75
2023/07/02 02:48:23;;;;;;;29.43;19.33;;;;;;;14.56;100.00;100629.38;5326572;28;20030;-75
2023/07/02 02:50:54;;;;;;;30.67;21.20;;;;;;;14.51;100.00;100631.28;5326412;28;20080;-75
2023/07/02 02:53:26;;;;;;;32.77;19.57;;;;;;;14.46;100.00;100630.56;5326309;28;20058;-75
2023/07/02 02:55:57;;;;;;;26.27;17.50;;;;;;;14.44;100.00;100630.63;5324806;28;20043;-74
2023/07/02 02:58:29;;;;;;;29.77;18.73;;;;;;;14.35;100.00;100631.75;5324657;28;20024;-73
2023/07/02 03:01:00;;;;;;;34.07;19.43;;;;;;;14.31;100.00;100637.13;5321853;28;20024;-74
2023/07/02 03:03:34;;;;;;;29.33;19.20;;;;;;;14.30;100.00;100641.53;5314473;28;20060;-75
2023/07/02 03:06:05;;;;;;;32.92;19.90;;;;;;;14.30;100.00;100645.94;5314652;28;20456;-74
2023/07/02 03:08:37;;;;;;;34.77;20.47;;;;;;;14.27;100.00;100646.88;5315241;28;20027;-73
2023/07/02 03:11:08;;;;;;;34.53;19.83;;;;;;;14.21;100.00;100650.50;5319323;28;20520;-74
2023/07/02 03:13:40;;;;;;;36.93;20.57;;;;;;;14.17;100.00;100650.69;5325847;28;20085;-74
2023/07/02 03:16:11;;;;;;;31.30;19.80;;;;;;;14.14;100.00;100661.25;5325775;28;20118;-75
2023/07/02 03:18:42;;;;;;;32.27;19.73;;;;;;;14.09;100.00;100660.50;5325795;28;20118;-74
2023/07/02 03:21:14;;;;;;;27.27;19.50;;;;;;;14.14;100.00;100664.72;5325709;28;20142;-74
2023/07/02 03:23:45;;;;;;;34.70;20.50;;;;;;;14.10;100.00;100660.47;5326121;28;20505;-74
2023/07/02 03:26:17;;;;;;;37.13;19.67;;;;;;;14.17;100.00;100662.03;5325606;28;20040;-74
2023/07/02 03:28:48;;;;;;;36.10;18.30;;;;;;;14.18;100.00;100665.47;5325715;28;20028;-74
2023/07/02 03:31:20;;;;;;;31.57;19.53;;;;;;;14.21;100.00;100674.13;5325863;28;20032;-74
2023/07/02 03:33:51;;;;;;;31.00;17.97;;;;;;;14.17;100.00;100674.28;5325970;28;20028;-75
2023/07/02 03:36:23;;;;;;;27.10;17.27;;;;;;;14.14;100.00;100672.59;5325588;28;20031;-75
2023/07/02 03:38:54;;;;;;;29.27;17.80;;;;;;;14.07;100.00;100668.44;5325557;28;20363;-74
2023/07/02 03:41:26;;;;;;;29.00;18.10;;;;;;;14.04;100.00;100676.41;5324453;28;20034;-74
2023/07/02 03:43:57;;;;;;;32.83;18.10;;;;;;;14.03;100.00;100679.91;5325444;28;20059;-74
2023/07/02 03:46:30;;;;;;;28.37;17.70;;;;;;;14.01;100.00;100681.72;5325778;28;20080;-74
2023/07/02 03:49:04;;;;;;;29.35;16.48;;;;;;;14.00;100.00;100677.38;5324847;27;20031;-74
2023/07/02 03:51:36;;;;;;;29.25;16.65;;;;;;;13.94;100.00;100682.78;5325062;28;20445;-74
2023/07/02 03:54:07;;;;;;;26.20;15.87;;;;;;;13.97;100.00;100683.53;5325399;28;20122;-75
2023/07/02 03:56:41;;;;;;;26.50;16.20;;;;;;;14.00;98.95;100685.25;5325097;28;20035;-75
2023/07/02 03:59:13;;;;;;;25.83;15.70;;;;;;;14.05;99.03;100691.19;5324720;27;20035;-75
2023/07/02 04:01:44;;;;;;;22.93;14.97;;;;;;;14.01;97.81;100689.59;5324949;28;20032;-75
2023/07/02 04:04:16;;;;;;;24.33;14.77;;;;;;;14.01;98.38;100694.81;5325024;28;20486;-74
2023/07/02 04:06:47;;;;;;;23.47;15.77;;;;;;;13.97;96.78;100688.78;5325438;28;20111;-75
2023/07/02 04:09:18;;;;;;;32.53;16.60;;;;;;;13.98;97.99;100700.16;5325253;28;20032;-75
2023/07/02 04:11:50;;;;;;;25.43;15.20;;;;;;;13.94;97.95;100695.88;5323697;28;20039;-74
2023/07/02 04:14:21;;;;;;;27.17;14.83;;;;;;;13.98;96.70;100694.91;5325106;28;20028;-75
2023/07/02 04:16:53;;;;;;;35.43;16.23;;;;;;;13.98;96.32;100695.75;5326439;28;20031;-74
2023/07/02 04:19:24;;;;;;;26.10;15.50;;;;;;;14.00;97.12;100700.97;5325009;28;20024;-74
2023/07/02 04:21:55;;;;;;;29.07;16.13;;;;;;;13.91;97.11;100703.84;5324906;28;20134;-73
2023/07/02 04:24:30;;;;;;;29.57;16.40;;;;;;;13.88;96.77;100706.53;5323640;28;20043;-74
2023/07/02 04:27:01;;;;;;;29.33;16.13;;;;;;;13.91;96.49;100703.84;5324539;28;20044;-74
2023/07/02 04:29:36;;;;;;;23.87;15.37;;;;;;;13.91;95.89;100704.72;5324492;28;20038;-74
2023/07/02 04:32:08;;;;;;;22.42;14.73;;;;;;;13.95;96.22;100705.47;5323583;28;20026;-74
2023/07/02 04:34:39;;;;;;;32.25;15.65;;;;;;;13.96;95.25;100708.06;5324688;28;20459;-74
2023/07/02 04:37:11;;;;;;;24.47;14.70;;;;;;;13.98;95.26;100705.41;5324983;28;20071;-74
2023/07/02 04:39:42;;;;;;;24.13;14.97;;;;;;;14.02;95.66;100713.13;5323297;28;20096;-73
2023/07/02 04:42:14;;;;;;;26.73;13.93;;;;;;;14.04;95.70;100708.69;5324690;28;20114;-72
2023/07/02 04:44:46;;;;;;;24.25;14.98;;;;;;;14.07;94.20;100714.75;5324573;28;20084;-74
2023/07/02 04:47:17;;;;;;;23.10;14.57;;;;;;;14.13;94.59;100722.44;5324850;28;20479;-73
2023/07/02 04:49:51;;;;;;;24.93;14.63;;;;;;;14.11;93.78;100717.25;5324671;28;20127;-74
2023/07/02 04:52:22;;;;;;;24.98;15.02;;;;;;;14.15;92.88;100718.88;5325011;28;20466;-74
2023/07/02 04:54:55;;;;;;;29.53;13.97;;;;;;;14.19;93.68;100728.38;5324317;28;20032;-74
2023/07/02 04:57:28;;;;;;;24.67;13.45;;;;;;;14.27;92.08;100729.91;5322649;28;20505;-73
2023/07/02 04:59:59;;;;;;;24.58;13.20;;;;;;;14.38;91.30;100735.72;5326347;28;20080;-74
2023/07/02 05:02:31;;;;;;;24.20;13.87;;;;;;;14.47;89.80;100734.56;5329086;28;20019;-74
2023/07/02 05:05:03;;;;;;;23.13;13.13;;;;;;;14.64;89.05;100741.97;5328716;28;20035;-74
2023/07/02 05:07:34;;;;;;;23.65;12.95;;;;;;;14.72;87.65;100745.22;5328783;28;20361;-74
2023/07/02 05:10:06;;;;;;;27.83;12.87;;;;;;;14.78;85.37;100747.66;5328765;28;20036;-73
2023/07/02 05:12:37;;;;;;;24.70;13.35;;;;;;;14.86;84.35;100742.16;5328800;28;20063;-74
2023/07/02 05:15:09;;;;;;;23.97;13.20;;;;;;;14.89;82.75;100749.94;5328596;28;20367;-74
2023/07/02 05:17:41;;;;;;;22.55;12.75;;;;;;;14.93;82.54;100746.31;5328292;28;20147;-74
2023/07/02 05:20:12;;;;;;;23.70;12.83;;;;;;;14.88;81.28;100754.31;5328518;28;20455;-74
2023/07/02 05:22:44;;;;;;;22.13;11.53;;;;;;;14.89;80.02;100763.94;5328685;27;20031;-74
2023/07/02 05:25:15;;;;;;;31.23;12.77;;;;;;;14.93;78.54;100770.78;5328242;28;20031;-75
2023/07/02 05:27:47;;;;;;;25.83;11.73;;;;;;;15.03;79.16;100770.50;5327715;28;20043;-74
2023/07/02 05:30:18;;;;;;;22.13;9.90;;;;;;;15.13;76.44;100771.91;5327900;28;20040;-74
2023/07/02 05:32:49;;;;;;;23.37;11.60;;;;;;;15.20;76.21;100769.94;5328244;28;20389;-73
2023/07/02 05:35:21;;;;;;;17.10;10.53;;;;;;;15.24;74.34;100772.44;5328011;28;20114;-74
2023/07/02 05:37:52;;;;;;;24.20;10.37;;;;;;;15.36;74.66;100775.56;5328137;28;20073;-74
2023/07/02 05:40:23;;;;;;;22.43;11.83;;;;;;;15.34;73.99;100782.66;5327949;28;20062;-74
2023/07/02 05:42:55;;;;;;;19.90;10.07;;;;;;;15.38;74.73;100777.25;5327837;28;20036;-74
2023/07/02 05:45:27;;;;;;;21.93;10.80;;;;;;;15.49;73.78;100779.53;5327839;28;20032;-75
2023/07/02 05:48:01;;;;;;;21.23;9.38;;;;;;;15.52;72.23;100787.31;5327906;28;20118;-74
2023/07/02 05:50:32;;;;;;;21.63;10.60;;;;;;;15.59;72.67;100795.84;5328173;28;20042;-74
2023/07/02 05:53:04;;;;;;;26.67;11.13;;;;;;;15.66;71.99;100794.72;5327639;28;20062;-75
2023/07/02 05:55:35;;;;;;;18.93;10.17;;;;;;;15.74;70.34;100797.09;5327939;28;20419;-74
2023/07/02 05:58:07;;;;;;;21.40;9.97;;;;;;;15.86;71.09;100794.06;5327503;28;20058;-75
2023/07/02 06:00:41;;;;;;;19.17;10.43;;;;;;;15.82;69.46;100792.44;5327830;28;20032;-75
2023/07/02 06:03:18;;;;;;;19.42;10.30;;;;;;;15.84;70.09;100801.13;5326240;28;20047;-75
2023/07/02 06:05:50;;;;;;;18.30;9.38;;;;;;;15.95;69.87;100790.25;5327478;28;20042;-75
2023/07/02 06:08:21;;;;;;;20.13;9.87;;;;;;;16.02;68.59;100789.16;5327539;28;20033;-74
2023/07/02 06:10:53;;;;;;;21.67;9.97;;;;;;;15.97;68.31;100809.44;5324993;28;20093;-74
2023/07/02 06:13:24;;;;;;;20.27;8.93;;;;;;;16.01;69.01;100805.81;5327590;28;20039;-74
2023/07/02 06:15:57;;;;;;;15.67;8.40;;;;;;;16.10;69.40;100807.25;5327397;28;20042;-75
2023/07/02 06:18:28;;;;;;;19.27;8.93;;;;;;;16.04;67.70;100800.47;5327599;28;20034;-75
2023/07/02 06:20:59;;;;;;;17.20;8.97;;;;;;;16.09;68.72;100802.94;5327246;28;20023;-75
2023/07/02 06:23:42;;;;;;;18.43;8.33;;;;;;;16.12;69.15;100808.09;5327394;28;20024;-74
2023/07/02 06:26:14;;;;;;;17.63;9.10;;;;;;;16.22;68.55;100809.47;5327415;28;20111;-75
2023/07/02 06:28:45;;;;;;;17.20;9.00;;;;;;;16.34;67.69;100810.78;5326501;28;20457;-75
2023/07/02 06:31:24;;;;;;;18.73;9.23;;;;;;;16.62;67.42;100815.88;5327573;28;20028;-75
2023/07/02 06:33:56;;;;;;;21.52;8.93;;;;;;;16.89;66.92;100823.69;5327354;28;20378;-74
2023/07/02 06:36:27;;;;;;;17.40;8.17;;;;;;;16.86;65.28;100822.03;5326931;28;20038;-75
2023/07/02 06:38:58;;;;;;;16.90;8.27;;;;;;;16.81;65.81;100823.06;5326772;28;20123;-75
2023/07/02 06:41:30;;;;;;;14.53;7.30;;;;;;;16.89;65.34;100819.28;5325241;28;20040;-75
2023/07/02 06:44:02;;;;;;;14.03;7.60;;;;;;;16.95;65.67;100824.31;5327099;28;20096;-74
2023/07/02 06:46:33;;;;;;;17.88;8.40;;;;;;;16.84;64.76;100828.22;5326683;28;20044;-79
2023/07/02 06:49:05;;;;;;;18.63;8.73;;;;;;;16.76;65.11;100829.38;5326539;28;20028;-76
2023/07/02 06:51:36;;;;;;;15.50;8.43;;;;;;;16.80;65.29;100837.16;5325294;28;20493;-76
2023/07/02 06:54:08;;;;;;;15.97;7.87;;;;;;;17.07;65.78;100837.91;5326641;28;20040;-75
2023/07/02 06:56:39;;;;;;;20.23;9.33;;;;;;;17.13;64.39;100845.59;5326588;28;20031;-76
2023/07/02 06:59:10;;;;;;;21.93;8.67;;;;;;;17.09;63.29;100851.88;5326004;28;20036;-76
2023/07/02 07:01:42;;;;;;;20.60;8.50;;;;;;;16.88;63.79;100843.88;5326322;28;20462;-75
2023/07/02 07:04:13;;;;;;;15.40;8.67;;;;;;;16.95;63.53;100849.75;5326001;28;20474;-74
2023/07/02 07:06:44;;;;;;;17.43;9.10;;;;;;;16.96;62.98;100848.84;5326388;28;20466;-75
2023/07/02 07:09:17;;;;;;;12.43;7.27;;;;;;;17.09;64.66;100859.78;5324858;27;20172;-77
2023/07/02 07:11:49;;;;;;;16.50;8.15;;;;;;;17.19;63.64;100852.38;5326333;28;20041;-77
2023/07/02 07:14:20;;;;;;;15.57;7.70;;;;;;;17.18;63.37;100862.06;5324357;28;20032;-78
2023/07/02 07:16:52;;;;;;;15.53;7.80;;;;;;;17.18;61.98;100858.56;5325672;28;20042;-77
2023/07/02 07:19:23;;;;;;;17.97;7.83;;;;;;;17.05;62.03;100863.44;5323740;28;20032;-77
2023/07/02 07:21:55;;;;;;;15.20;7.20;;;;;;;17.11;62.05;100866.72;5326841;28;20128;-81
2023/07/02 07:24:26;;;;;;;16.10;7.27;;;;;;;17.18;59.99;100869.09;5326866;28;20443;-80
2023/07/02 07:26:58;;;;;;;16.33;7.70;;;;;;;17.24;59.90;100868.84;5326803;28;20047;-77
2023/07/02 07:29:29;;;;;;;14.93;7.50;;;;;;;17.50;61.05;100868.69;5326659;28;20040;-78
2023/07/02 07:32:02;;;;;;;17.42;8.02;;;;;;;17.59;60.69;100875.34;5306796;28;20073;-78
2023/07/02 07:34:33;;;;;;;15.03;7.20;;;;;;;17.71;59.22;100883.69;5326352;28;20032;-78
2023/07/02 07:37:05;;;;;;;13.37;6.40;;;;;;;17.76;59.15;100898.41;5327184;28;20039;-77
2023/07/02 07:39:37;;;;;;;13.70;7.55;;;;;;;17.23;58.67;100901.41;5334724;28;20031;-79
2023/07/02 07:42:08;;;;;;;15.17;7.47;;;;;;;17.44;60.12;100890.00;5344417;28;20053;-77
2023/07/02 07:44:39;;;;;;;15.50;6.57;;;;;;;17.57;59.80;100894.81;5345695;28;20028;-78
2023/07/02 07:47:11;;;;;;;15.27;7.57;;;;;;;17.52;58.63;100894.09;5329571;28;20092;-78
2023/07/02 07:49:42;;;;;;;11.17;6.70;;;;;;;17.58;57.80;100912.31;5318745;28;20032;-80
2023/07/02 07:52:14;;;;;;;15.37;6.63;;;;;;;17.33;58.06;100910.66;5311974;28;20333;-82
2023/07/02 07:54:45;;;;;;;18.13;7.50;;;;;;;17.58;58.85;100910.56;5316763;28;20028;-78
2023/07/02 07:57:16;;;;;;;16.23;6.63;;;;;;;17.98;59.10;100898.41;5318128;28;20539;-78
2023/07/02 07:59:48;;;;;;;13.87;6.53;;;;;;;18.28;57.37;100907.72;5314379;28;20505;-79
2023/07/02 08:02:22;;;;;;;13.88;6.93;;;;;;;18.60;57.84;100895.75;5313796;28;20054;-78
2023/07/02 08:04:54;;;;;;;16.33;7.47;;;;;;;18.62;54.87;100907.09;5315087;28;20031;-76
2023/07/02 08:07:25;;;;;;;14.13;6.93;;;;;;;18.79;54.34;100901.06;5314383;28;20566;-79
2023/07/02 08:09:56;;;;;;;13.50;6.47;;;;;;;18.59;51.97;100902.81;5314859;28;20070;-78
2023/07/02 08:12:29;;;;;;;14.97;6.90;;;;;;;18.19;51.61;100903.69;5331182;28;20065;-79
2023/07/02 08:15:00;;;;;;;;;;;;;;;18.52;51.81;100908.44;5328428;28;20024;-78
2023/07/02 08:17:32;;;;;;;12.15;6.45;;;;;;;18.51;52.77;100904.91;5328450;28;19977;-78
2023/07/02 08:20:04;;;;;;;14.80;7.47;;;;;;;18.33;54.21;100906.56;5324982;28;20080;-80
2023/07/02 08:22:39;;;;;;;16.27;7.03;;;;;;;18.34;52.10;100925.94;5325563;28;20364;-77
2023/07/02 08:25:10;;;;;;;12.60;7.20;;;;;;;18.20;52.63;100923.88;5324279;28;20043;-76
2023/07/02 08:27:42;;;;;;;9.30;5.67;;;;;;;18.56;52.97;100920.56;5325613;28;20240;-78
2023/07/02 08:30:13;;;;;;;16.70;7.23;;;;;;;18.77;54.22;100913.47;5323854;28;20479;-78
2023/07/02 08:32:45;;;;;;;13.63;7.33;;;;;;;18.64;51.63;100926.34;5324110;28;20032;-78
2023/07/02 08:35:17;;;;;;;12.27;6.35;;;;;;;19.14;51.36;100919.72;5323512;28;20081;-77
2023/07/02 08:37:48;;;;;;;14.70;7.23;;;;;;;19.12;50.18;100930.38;5324684;28;20421;-76
2023/07/02 08:40:20;;;;;;;16.80;7.07;;;;;;;19.18;50.51;100928.41;5322583;28;20063;-77
2023/07/02 08:42:51;;;;;;;11.52;6.03;;;;;;;19.37;51.97;100931.00;5324816;28;20039;-77
2023/07/02 08:45:26;;;;;;;12.67;5.93;;;;;;;19.20;49.83;100935.31;5324189;28;20482;-75
2023/07/02 08:47:58;;;;;;;14.57;7.13;;;;;;;18.75;49.58;100934.66;5324335;28;20031;-76
2023/07/02 08:50:29;;;;;;;15.77;6.20;;;;;;;18.59;48.55;100930.97;5324458;28;20126;-79
2023/07/02 08:53:01;;;;;;;14.07;7.20;;;;;;;18.88;48.48;100939.44;5325124;28;20043;-79
2023/07/02 08:55:33;;;;;;;12.53;5.60;;;;;;;18.79;45.79;100932.75;5324834;28;20489;-79
2023/07/02 08:58:04;;;;;;;11.57;6.35;;;;;;;18.90;45.61;100937.56;5323555;28;20380;-76
2023/07/02 09:00:36;;;;;;;12.03;5.90;;;;;;;19.06;46.49;100940.38;5324872;28;20140;-77
2023/07/02 09:03:18;;;;;;;13.20;6.38;;;;;;;18.89;45.43;100939.34;5324092;28;20139;-77
2023/07/02 09:05:53;;;;;;;13.27;6.40;;;;;;;19.31;45.54;100932.16;5325074;28;20106;-75
2023/07/02 09:08:28;;;;;;;12.07;6.13;;;;;;;19.09;45.24;100940.22;5325399;28;20114;-79
2023/07/02 09:11:13;;;;;;;12.73;6.18;;;;;;;19.37;48.40;100931.00;5326242;28;20104;-78
2023/07/02 09:13:47;;;;;;;13.07;6.53;;;;;;;19.44;44.90;100937.72;5324940;28;20122;-77
2023/07/02 09:16:21;;;;;;;14.02;6.35;;;;;;;19.37;45.20;100938.94;5325272;28;20073;-78
2023/07/02 09:19:09;;;;;;;14.00;6.80;;;;;;;19.23;44.78;100934.31;5324656;28;20079;-79
2023/07/02 09:21:45;;;;;;;15.07;7.30;;;;;;;19.18;45.26;100926.59;5325313;28;20496;-76
2023/07/02 09:24:23;;;;;;;12.88;6.35;;;;;;;19.70;45.66;100935.63;5327128;28;20434;-79
2023/07/02 09:26:57;;;;;;;10.40;6.15;;;;;;;20.03;45.29;100935.78;5325527;28;20039;-79
2023/07/02 09:29:31;;;;;;;12.35;6.93;;;;;;;20.04;44.00;100948.06;5324665;28;20031;-78
2023/07/02 09:32:07;;;;;;;11.82;6.20;;;;;;;19.85;43.92;100943.72;5324906;28;20463;-78
2023/07/02 09:34:41;;;;;;;11.52;6.05;;;;;;;19.37;44.10;100928.38;5325553;28;20547;-79
2023/07/02 09:37:13;;;;;;;10.68;6.13;;;;;;;19.70;44.79;100925.91;5325143;28;20103;-78
2023/07/02 09:39:50;;;;;;;17.38;6.65;;;;;;;19.36;45.42;100932.81;5326766;28;20058;-82
2023/07/02 09:42:21;;;;;;;12.10;6.15;;;;;;;19.46;44.97;100935.88;5327616;28;20030;-79
2023/07/02 09:44:55;;;;;;;18.55;7.07;;;;;;;19.75;46.44;100937.09;5328350;28;20027;-80
2023/07/02 09:47:29;;;;;;;14.13;6.90;;;;;;;19.23;46.01;100929.03;5329572;28;20455;-80
2023/07/02 09:50:05;;;;;;;12.82;6.95;;;;;;;19.64;46.79;100934.13;5322774;28;20035;-80
2023/07/02 09:52:38;;;;;;;13.32;7.70;;;;;;;20.04;45.21;100937.47;5316520;28;20028;-75
2023/07/02 09:55:09;;;;;;;;;;;;;;;19.97;45.02;100947.53;5312200;28;20513;-77
2023/07/02 09:57:43;;;;;;;14.63;6.30;;;;;;;19.89;46.58;100951.50;5331786;28;19916;-79
2023/07/02 10:00:15;;;;;;;12.65;7.38;;;;;;;19.89;46.09;100941.75;5328577;28;20032;-77
2023/07/02 10:02:52;;;;;;;11.52;6.63;;;;;;;19.71;46.54;100940.84;5329005;28;20371;-75
2023/07/02 10:05:29;;;;;;;13.02;6.50;;;;;;;20.24;48.51;100939.16;5328571;28;20112;-77
2023/07/02 10:08:15;;;;;;;13.38;7.30;;;;;;;20.67;46.69;100951.97;5323911;28;20046;-77
2023/07/02 10:10:52;;;;;;;16.10;6.10;;;;;;;21.02;44.80;100951.91;5307920;28;20032;-77
2023/07/02 10:13:28;;;;;;;16.02;6.57;;;;;;;21.42;44.52;100950.56;5306537;28;20035;-77
2023/07/02 10:16:06;;;;;;;13.10;6.93;;;;;;;21.23;44.78;100947.22;5308375;28;20028;-78
2023/07/02 10:18:38;;;;;;;16.58;7.95;;;;;;;20.81;44.32;100961.84;5306649;28;20403;-78
2023/07/02 10:21:15;;;;;;;14.88;6.00;;;;;;;20.67;44.60;100957.28;5306992;28;20086;-78
2023/07/02 10:23:47;;;;;;;12.25;7.10;;;;;;;19.88;45.78;100963.84;5305915;28;20463;-79
2023/07/02 10:26:19;;;;;;;16.47;7.23;;;;;;;19.67;46.56;100960.41;5308082;28;20081;-77
2023/07/02 10:29:00;;;;;;;12.77;6.35;;;;;;;20.03;48.46;100954.31;5306925;28;20071;-78
2023/07/02 10:31:48;;;;;;;15.25;7.38;;;;;;;20.14;47.54;100957.28;5311088;28;20406;-77
2023/07/02 10:34:33;;;;;;;13.30;7.03;;;;;;;21.09;45.09;100951.50;5312594;28;20788;-77
2023/07/02 10:37:08;;;;;;;14.73;6.63;;;;;;;22.37;42.02;100962.03;5314572;28;20047;-79
2023/07/02 10:39:40;;;;;;;12.70;7.07;;;;;;;22.21;41.09;100962.88;5311224;28;20039;-79
2023/07/02 10:42:34;;;;;;;12.13;6.88;;;;;;;21.60;42.99;100959.31;5309832;28;20036;-78
2023/07/02 10:45:06;;;;;;;14.45;7.20;;;;;;;21.62;43.90;100956.56;5306370;28;20092;-77
2023/07/02 10:47:43;;;;;;;14.45;7.70;;;;;;;21.23;43.12;100965.78;5314707;28;20027;-79
2023/07/02 10:50:16;;;;;;;11.73;7.00;;;;;;;22.15;42.09;100963.28;5314929;28;20024;-80
2023/07/02 10:52:51;;;;;;;12.75;7.47;;;;;;;21.96;41.21;100973.22;5318080;28;20090;-79
2023/07/02 10:55:24;;;;;;;12.93;7.88;;;;;;;21.24;42.45;100967.50;5319605;28;20036;-80
2023/07/02 10:58:07;;;;;;;17.23;8.88;;;;;;;21.67;43.51;100973.97;5313219;28;20028;-75
2023/07/02 11:00:52;;;;;;;17.65;7.95;;;;;;;21.81;43.56;100972.31;5312675;28;20028;-79
2023/07/02 11:03:26;;;;;;;18.77;9.05;;;;;;;22.62;40.07;100973.81;5309984;28;20136;-80
2023/07/02 11:06:12;;;;;;;18.80;8.30;;;;;;;23.64;40.90;100969.22;5314527;28;20130;-80
2023/07/02 11:09:09;;;;;;;17.80;9.30;;;;;;;24.31;37.06;100978.19;5308388;28;20110;-80
2023/07/02 11:12:21;;;;;;;18.33;9.00;;;;;;;22.92;40.57;100963.13;5318257;28;20036;-76
2023/07/02 11:15:17;;;;;;;14.63;8.25;;;;;;;21.42;41.78;100990.34;5316371;28;20044;-79
2023/07/02 11:17:55;;;;;;;16.40;8.93;;;;;;;20.35;45.30;100971.22;5301283;28;20425;-78
2023/07/02 11:20:36;;;;;;;15.90;8.82;;;;;;;19.62;47.49;100979.16;5292533;28;20039;-80
2023/07/02 11:23:24;;;;;;;18.33;8.70;;;;;;;19.71;49.47;100966.44;5319290;28;20024;-78
2023/07/02 11:26:04;;;;;;;18.83;9.65;;;;;;;19.81;49.28;100987.09;5298754;28;20032;-76
2023/07/02 11:28:50;;;;;;;18.00;9.65;;;;;;;19.76;50.08;100975.03;5314211;28;20048;-81
2023/07/02 11:31:28;;;;;;;17.63;8.02;;;;;;;20.18;50.60;100977.34;5297234;28;20044;-77
2023/07/02 11:34:01;;;;;;;17.67;8.82;;;;;;;20.80;48.62;100974.25;5315023;28;20036;-76
2023/07/02 11:36:34;;;;;;;;;;;;;;;21.40;46.79;100970.16;5310014;28;20028;-77
2023/07/02 11:39:06;;;;;;;19.30;10.15;;;;;;;21.02;47.06;100966.00;5304941;28;19916;-80
2023/07/02 11:41:43;;;;;;;14.40;7.68;;;;;;;20.89;48.46;100970.25;5304746;28;20417;-79